Time;durP1;ratioP1;P1;durP2;ratioP2;P2;SDS_P1;SDS_P2;PMS_P1;PMS_P2;Temp;Humidity;BMP_temperature;BMP_pressure;BME280_temperature;BME280_humidity;BME280_pressure;Samples;Min_cycle;Max_cycle;Signal;HPM_P1;HPM_P2
2022/06/22 00:01:11;;;;;;;7.25;5.38;;;16.40;99.60;;;;;;2088095;28;20064;-69
2022/06/22 00:02:17;;;;;;;6.50;5.68;;;16.40;99.90;;;;;;2087549;28;20036;-69
2022/06/22 00:03:19;;;;;;;6.43;5.38;;;16.40;99.90;;;;;;2087611;28;20137;-70
2022/06/22 00:04:31;;;;;;;9.25;5.60;;;16.40;99.90;;;;;;2087448;28;20037;-68
2022/06/22 00:05:38;;;;;;;7.50;5.40;;;16.40;99.90;;;;;;2080672;28;20099;-70
2022/06/22 00:07:10;;;;;;;7.35;5.50;;;16.30;99.90;;;;;;2080147;28;20028;-70
2022/06/22 00:08:18;;;;;;;6.10;4.90;;;16.30;99.90;;;;;;2087720;28;20041;-70
2022/06/22 00:09:29;;;;;;;5.68;5.10;;;16.30;99.90;;;;;;2078881;28;20034;-70
2022/06/22 00:10:56;;;;;;;5.70;5.10;;;16.30;99.90;;;;;;2080590;28;20438;-70
2022/06/22 00:11:58;;;;;;;6.25;5.05;;;16.20;99.90;;;;;;2087468;28;20037;-70
2022/06/22 00:13:01;;;;;;;5.93;4.93;;;16.20;99.90;;;;;;2088098;28;20052;-71
2022/06/22 00:14:02;;;;;;;5.57;5.07;;;16.10;99.90;;;;;;2088008;28;20094;-69
2022/06/22 00:15:21;;;;;;;5.97;5.07;;;16.10;99.90;;;;;;2087775;28;20072;-70
2022/06/22 00:16:28;;;;;;;6.45;4.88;;;16.10;99.90;;;;;;2087408;28;20060;-70
2022/06/22 00:17:38;;;;;;;5.53;4.90;;;16.10;99.90;;;;;;2086525;28;20070;-69
2022/06/22 00:18:51;;;;;;;6.10;4.88;;;16.10;99.90;;;;;;2087946;28;20095;-73
2022/06/22 00:19:59;;;;;;;5.82;4.85;;;16.10;99.90;;;;;;2088239;28;20399;-69
2022/06/22 00:21:04;;;;;;;7.45;4.93;;;16.10;99.90;;;;;;2088223;28;20047;-69
2022/06/22 00:22:05;;;;;;;5.90;4.88;;;16.10;99.90;;;;;;2088146;28;20040;-70
2022/06/22 00:23:39;;;;;;;5.05;4.60;;;16.00;99.90;;;;;;2088106;28;20617;-70
2022/06/22 00:24:41;;;;;;;6.30;4.93;;;16.10;99.90;;;;;;2087942;28;20033;-69
2022/06/22 00:25:42;;;;;;;5.88;4.57;;;16.10;99.90;;;;;;2087174;28;20021;-71
2022/06/22 00:26:52;;;;;;;5.13;4.70;;;16.10;99.90;;;;;;2087387;28;20029;-70
2022/06/22 00:27:53;;;;;;;5.47;4.63;;;16.10;99.90;;;;;;2087315;28;20060;-71
2022/06/22 00:29:05;;;;;;;5.32;4.82;;;16.10;99.90;;;;;;2086843;28;20037;-72
2022/06/22 00:30:13;;;;;;;5.60;4.90;;;16.10;99.90;;;;;;2087971;28;20021;-70
2022/06/22 00:31:20;;;;;;;6.82;4.90;;;16.00;99.90;;;;;;2088039;28;20036;-72
2022/06/22 00:32:29;;;;;;;5.38;4.75;;;16.10;99.90;;;;;;2087999;28;20433;-71
2022/06/22 00:33:30;;;;;;;6.43;4.63;;;16.10;99.90;;;;;;2088008;28;20048;-71
2022/06/22 00:34:33;;;;;;;4.93;4.43;;;16.10;99.90;;;;;;2088166;28;20127;-69
2022/06/22 00:35:58;;;;;;;5.90;4.85;;;16.10;99.90;;;;;;2088219;28;20057;-70
2022/06/22 00:36:59;;;;;;;6.20;5.03;;;16.10;99.90;;;;;;2088164;28;20036;-70
2022/06/22 00:38:00;;;;;;;5.30;4.78;;;16.10;99.90;;;;;;2087470;28;20032;-69
2022/06/22 00:39:30;;;;;;;5.25;4.60;;;16.10;99.90;;;;;;2087178;28;20025;-70
2022/06/22 00:40:31;;;;;;;6.68;4.80;;;16.10;99.90;;;;;;2083072;28;20150;-70
2022/06/22 00:41:32;;;;;;;5.47;4.90;;;16.10;99.90;;;;;;2087500;28;20601;-70
2022/06/22 00:42:47;;;;;;;5.97;4.75;;;16.10;99.90;;;;;;2087411;28;20381;-69
2022/06/22 00:43:49;;;;;;;5.25;4.75;;;16.10;99.90;;;;;;2087940;28;20025;-69
2022/06/22 00:45:07;;;;;;;5.32;4.65;;;16.10;99.90;;;;;;2087260;28;20388;-69
2022/06/22 00:46:15;;;;;;;6.05;4.63;;;16.10;99.90;;;;;;2087503;28;20036;-69
2022/06/22 00:47:33;;;;;;;5.68;4.80;;;16.10;99.90;;;;;;2087936;28;20154;-69
2022/06/22 00:48:36;;;;;;;5.45;4.60;;;16.10;99.90;;;;;;2087104;28;20021;-69
2022/06/22 00:49:43;;;;;;;5.25;4.75;;;16.00;99.90;;;;;;2087254;28;20628;-69
2022/06/22 00:50:48;;;;;;;5.20;4.70;;;16.10;99.90;;;;;;2087937;28;20074;-69
2022/06/22 00:51:49;;;;;;;5.55;4.53;;;16.10;99.90;;;;;;2087936;28;20029;-70
2022/06/22 00:53:03;;;;;;;5.35;4.85;;;16.00;99.90;;;;;;2088068;28;20044;-68
2022/06/22 00:54:10;;;;;;;5.68;5.00;;;16.00;99.90;;;;;;2087554;28;20028;-68
2022/06/22 00:55:38;;;;;;;5.93;4.95;;;16.00;99.90;;;;;;2087459;28;20044;-69
2022/06/22 00:57:08;;;;;;;6.82;5.00;;;16.00;99.90;;;;;;2087273;28;20420;-69
2022/06/22 00:58:27;;;;;;;5.47;4.82;;;16.00;99.90;;;;;;2087583;28;20585;-69
2022/06/22 00:59:51;;;;;;;5.28;4.68;;;16.00;99.90;;;;;;2087813;28;20032;-71
2022/06/22 01:01:34;;;;;;;6.07;4.90;;;16.00;99.90;;;;;;2087650;28;20044;-70
2022/06/22 01:02:50;;;;;;;6.50;4.95;;;16.00;99.90;;;;;;2087745;28;20025;-70
2022/06/22 01:04:16;;;;;;;5.97;5.28;;;16.00;99.90;;;;;;2086982;28;20448;-68
2022/06/22 01:05:33;;;;;;;6.63;4.50;;;16.00;99.90;;;;;;2087170;28;20034;-69
2022/06/22 01:07:09;;;;;;;6.18;5.07;;;16.00;99.90;;;;;;2087724;28;20033;-70
2022/06/22 01:08:40;;;;;;;4.97;4.57;;;15.90;99.90;;;;;;2085679;28;20037;-69
2022/06/22 01:09:44;;;;;;;;;;;15.90;99.90;;;;;;2087811;28;20037;-69
2022/06/22 01:10:51;;;;;;;5.40;4.90;;;15.90;99.90;;;;;;2087544;28;19963;-69
2022/06/22 01:12:18;;;;;;;5.80;4.85;;;15.90;99.90;;;;;;2086878;28;20116;-69
2022/06/22 01:13:25;;;;;;;5.95;4.80;;;15.90;99.90;;;;;;2087464;28;20518;-69
2022/06/22 01:14:35;;;;;;;6.45;4.93;;;15.90;99.90;;;;;;2087094;28;20035;-68
2022/06/22 01:15:51;;;;;;;5.90;4.80;;;15.90;99.90;;;;;;2087233;28;20041;-71
2022/06/22 01:16:56;;;;;;;6.10;4.80;;;15.90;99.90;;;;;;2087622;28;20040;-69
2022/06/22 01:18:09;;;;;;;6.28;4.55;;;15.80;99.90;;;;;;2087237;28;20069;-70
2022/06/22 01:19:22;;;;;;;6.05;4.90;;;15.80;99.90;;;;;;2087001;28;20029;-69
2022/06/22 01:20:34;;;;;;;4.95;4.55;;;15.80;99.90;;;;;;2087727;28;20029;-70
2022/06/22 01:21:43;;;;;;;5.32;4.60;;;15.80;99.90;;;;;;2087839;28;20036;-69
2022/06/22 01:23:09;;;;;;;6.35;5.10;;;15.80;99.90;;;;;;2088103;28;20028;-69
2022/06/22 01:24:34;;;;;;;5.78;4.80;;;15.70;99.90;;;;;;2087858;28;20032;-68
2022/06/22 01:26:14;;;;;;;5.93;4.90;;;15.70;99.90;;;;;;2087582;28;20025;-69
2022/06/22 01:27:35;;;;;;;5.55;4.90;;;15.70;99.90;;;;;;2087499;28;20025;-69
2022/06/22 01:28:35;;;;;;;;;;;15.70;99.90;;;;;;2086910;28;20041;-69
2022/06/22 01:29:47;;;;;;;6.15;5.00;;;15.60;99.90;;;;;;2078817;28;19909;-68
2022/06/22 01:31:02;;;;;;;5.80;4.55;;;15.60;99.90;;;;;;2086831;28;20028;-72
2022/06/22 01:32:12;;;;;;;5.18;4.68;;;15.60;99.90;;;;;;2087095;28;20131;-68
2022/06/22 01:33:17;;;;;;;5.80;4.82;;;15.60;99.90;;;;;;2086954;28;20029;-69
2022/06/22 01:34:20;;;;;;;5.47;4.88;;;15.60;99.90;;;;;;2087063;28;20078;-70
2022/06/22 01:35:31;;;;;;;5.20;4.70;;;15.60;99.90;;;;;;2087372;28;20033;-70
2022/06/22 01:36:33;;;;;;;5.25;4.75;;;15.60;99.90;;;;;;2087614;28;20029;-69
2022/06/22 01:37:34;;;;;;;5.75;5.10;;;15.60;99.90;;;;;;2087357;28;20063;-70
2022/06/22 01:38:38;;;;;;;5.60;5.00;;;15.50;99.90;;;;;;2087262;28;20017;-70
2022/06/22 01:39:39;;;;;;;7.13;5.00;;;15.50;99.90;;;;;;2086841;28;20033;-69
2022/06/22 01:40:48;;;;;;;5.38;4.70;;;15.50;99.90;;;;;;2078465;28;20029;-70
2022/06/22 01:42:05;;;;;;;5.57;5.03;;;15.50;99.90;;;;;;2086982;28;20025;-69
2022/06/22 01:43:13;;;;;;;5.35;4.85;;;15.50;99.90;;;;;;2086793;28;20033;-70
2022/06/22 01:44:24;;;;;;;5.60;5.10;;;15.50;99.90;;;;;;2086963;28;20053;-69
2022/06/22 01:45:33;;;;;;;5.65;5.07;;;15.50;99.90;;;;;;2087464;28;20029;-69
2022/06/22 01:46:37;;;;;;;5.75;5.05;;;15.50;99.90;;;;;;2087574;28;20021;-70
2022/06/22 01:47:49;;;;;;;5.25;4.75;;;15.50;99.90;;;;;;2087715;28;20054;-69
2022/06/22 01:49:08;;;;;;;6.22;5.22;;;15.50;99.90;;;;;;2087310;28;20475;-70
2022/06/22 01:50:08;;;;;;;5.63;5.00;;;15.50;99.90;;;;;;2086530;28;20062;-70
2022/06/22 01:51:31;;;;;;;5.53;5.00;;;15.50;99.90;;;;;;2086939;28;20041;-69
2022/06/22 01:52:58;;;;;;;5.63;5.03;;;15.50;99.90;;;;;;2087422;28;20065;-70
2022/06/22 01:54:15;;;;;;;5.68;5.00;;;15.50;99.90;;;;;;2087249;28;20182;-69
2022/06/22 01:55:34;;;;;;;6.97;5.00;;;15.50;99.90;;;;;;2087483;28;20491;-70
2022/06/22 01:56:40;;;;;;;5.40;4.90;;;15.50;99.90;;;;;;2087594;28;20021;-70
2022/06/22 01:57:50;;;;;;;5.03;4.60;;;15.50;99.90;;;;;;2087458;28;20028;-68
2022/06/22 01:58:58;;;;;;;5.28;4.78;;;15.50;99.90;;;;;;2087269;28;20082;-70
2022/06/22 02:00:19;;;;;;;5.30;4.80;;;15.60;99.90;;;;;;2087249;28;20263;-71
2022/06/22 02:01:31;;;;;;;6.90;5.20;;;15.60;99.90;;;;;;2087490;28;20028;-70
2022/06/22 02:02:40;;;;;;;5.30;4.60;;;15.50;99.90;;;;;;2087641;28;20025;-71
2022/06/22 02:03:53;;;;;;;6.20;4.93;;;15.60;99.90;;;;;;2087819;28;20099;-73
2022/06/22 02:05:10;;;;;;;5.30;4.80;;;15.60;99.90;;;;;;2087783;28;20040;-71
2022/06/22 02:07:58;;;;;;;6.43;4.85;;;15.70;99.90;;;;;;2087807;28;20037;-70
2022/06/22 02:09:06;;;;;;;5.13;4.60;;;15.70;99.90;;;;;;2087457;28;20475;-70
2022/06/22 02:10:29;;;;;;;4.97;4.57;;;15.70;99.90;;;;;;2087773;28;20487;-71
2022/06/22 02:11:38;;;;;;;5.45;4.78;;;15.70;99.90;;;;;;2087543;28;20774;-70
2022/06/22 02:12:46;;;;;;;5.50;5.00;;;15.80;99.90;;;;;;2087125;28;20595;-69
2022/06/22 02:13:52;;;;;;;6.43;5.20;;;15.80;99.90;;;;;;2079721;28;20026;-70
2022/06/22 02:15:16;;;;;;;6.00;5.00;;;15.80;99.90;;;;;;2086788;28;20032;-69
2022/06/22 02:16:38;;;;;;;8.00;5.30;;;15.80;99.90;;;;;;2078290;28;20042;-69
2022/06/22 02:17:41;;;;;;;6.57;5.20;;;15.90;99.90;;;;;;2078843;28;20815;-71
2022/06/22 02:18:51;;;;;;;5.60;5.10;;;15.90;99.90;;;;;;2086561;28;20615;-69
2022/06/22 02:20:17;;;;;;;5.93;5.10;;;15.90;99.90;;;;;;2087403;28;20028;-70
2022/06/22 02:21:26;;;;;;;5.85;5.22;;;15.90;99.90;;;;;;2087324;28;20263;-70
2022/06/22 02:22:27;;;;;;;9.48;5.30;;;15.90;99.90;;;;;;2087444;28;20024;-70
2022/06/22 02:23:33;;;;;;;5.65;5.05;;;15.90;99.90;;;;;;2087459;28;20067;-72
2022/06/22 02:24:34;;;;;;;8.55;5.20;;;15.90;99.90;;;;;;2086730;28;20021;-70
2022/06/22 02:25:41;;;;;;;5.18;4.78;;;15.90;99.90;;;;;;2086837;28;20196;-70
2022/06/22 02:26:51;;;;;;;5.35;4.85;;;15.90;99.90;;;;;;2087400;28;20013;-70
2022/06/22 02:27:52;;;;;;;5.20;4.70;;;15.90;99.90;;;;;;2087596;28;20051;-70
2022/06/22 02:28:53;;;;;;;6.85;5.07;;;15.90;99.90;;;;;;2086391;28;20045;-68
2022/06/22 02:29:57;;;;;;;6.03;5.18;;;15.90;99.90;;;;;;2086716;28;20048;-70
2022/06/22 02:30:59;;;;;;;5.32;4.82;;;15.90;99.90;;;;;;2086645;28;20036;-70
2022/06/22 02:32:05;;;;;;;5.13;4.63;;;15.90;99.90;;;;;;2078550;28;20021;-70
2022/06/22 02:33:07;;;;;;;5.68;5.07;;;15.90;99.90;;;;;;2086845;28;20376;-70
2022/06/22 02:34:08;;;;;;;5.60;4.90;;;15.90;99.90;;;;;;2087373;28;20167;-70
2022/06/22 02:35:11;;;;;;;5.15;4.60;;;15.90;99.90;;;;;;2086669;28;20513;-69
2022/06/22 02:36:12;;;;;;;5.75;4.75;;;15.90;99.90;;;;;;2078753;28;20030;-70
2022/06/22 02:37:14;;;;;;;5.07;4.63;;;15.90;99.90;;;;;;2086609;28;20036;-68
2022/06/22 02:38:16;;;;;;;5.10;4.60;;;15.90;99.90;;;;;;2086572;28;20423;-69
2022/06/22 02:39:18;;;;;;;5.40;4.82;;;15.90;99.90;;;;;;2078173;28;20125;-69
2022/06/22 02:40:26;;;;;;;6.43;4.90;;;15.90;99.90;;;;;;2086657;28;20472;-69
2022/06/22 02:44:31;;;;;;;5.03;4.53;;;15.90;99.90;;;;;;2088404;28;20087;-69
2022/06/22 02:45:32;;;;;;;5.00;4.50;;;15.90;99.90;;;;;;2088109;28;20534;-69
2022/06/22 02:46:37;;;;;;;5.82;4.72;;;15.90;99.90;;;;;;2088132;28;20037;-69
2022/06/22 02:47:49;;;;;;;4.97;4.43;;;15.90;99.90;;;;;;2088128;28;20604;-68
2022/06/22 02:48:55;;;;;;;5.38;4.88;;;15.90;99.90;;;;;;2088095;28;20048;-69
2022/06/22 02:50:01;;;;;;;6.90;4.95;;;15.90;99.90;;;;;;2079839;28;20029;-69
2022/06/22 02:51:12;;;;;;;5.50;4.82;;;15.90;99.90;;;;;;2080395;28;20041;-68
2022/06/22 02:52:15;;;;;;;5.45;4.80;;;15.90;99.90;;;;;;2088311;28;20103;-69
2022/06/22 02:53:33;;;;;;;4.80;4.40;;;15.90;99.90;;;;;;2088171;28;20104;-69
2022/06/22 02:54:48;;;;;;;5.47;4.97;;;15.90;99.90;;;;;;2082422;28;20029;-69
2022/06/22 02:55:48;;;;;;;5.63;5.10;;;15.90;99.90;;;;;;2081726;28;20171;-69
2022/06/22 02:57:00;;;;;;;5.38;4.88;;;15.90;99.90;;;;;;2088154;28;20103;-69
2022/06/22 02:58:19;;;;;;;5.35;4.80;;;15.90;99.90;;;;;;2088852;28;20061;-69
2022/06/22 02:59:20;;;;;;;6.03;5.10;;;15.90;99.90;;;;;;2088131;28;20076;-69
2022/06/22 03:00:31;;;;;;;5.85;5.22;;;15.90;99.90;;;;;;2088043;28;20032;-69
2022/06/22 03:01:34;;;;;;;6.40;5.47;;;15.90;99.90;;;;;;2088530;28;20116;-68
2022/06/22 03:02:36;;;;;;;7.50;5.30;;;15.90;99.90;;;;;;2088734;28;20043;-69
2022/06/22 03:03:36;;;;;;;5.93;5.18;;;15.90;99.90;;;;;;2088616;28;20036;-70
2022/06/22 03:04:39;;;;;;;5.55;4.90;;;15.90;99.90;;;;;;2088645;28;20048;-69
2022/06/22 03:05:43;;;;;;;5.10;4.60;;;15.90;99.90;;;;;;2088675;28;20036;-70
2022/06/22 03:06:49;;;;;;;6.20;4.60;;;16.00;99.90;;;;;;2088020;28;20032;-69
2022/06/22 03:07:53;;;;;;;5.97;4.80;;;16.00;99.90;;;;;;2088680;28;20044;-68
2022/06/22 03:08:57;;;;;;;4.80;4.40;;;16.00;99.90;;;;;;2087747;28;20590;-69
2022/06/22 03:09:59;;;;;;;5.30;4.78;;;16.00;99.90;;;;;;2087982;28;20118;-68
2022/06/22 03:11:03;;;;;;;6.00;4.80;;;16.10;99.90;;;;;;2088680;28;20029;-70
2022/06/22 03:12:05;;;;;;;5.45;4.95;;;16.10;99.90;;;;;;2088046;28;20028;-69
2022/06/22 03:13:08;;;;;;;5.85;5.13;;;16.10;99.90;;;;;;2088078;28;20067;-70
2022/06/22 03:14:17;;;;;;;6.28;4.80;;;16.10;99.90;;;;;;2087962;28;20039;-70
2022/06/22 03:15:23;;;;;;;5.72;5.13;;;16.20;99.90;;;;;;2080731;28;20029;-68
2022/06/22 03:16:31;;;;;;;4.97;4.47;;;16.20;99.90;;;;;;2088044;28;20103;-69
2022/06/22 03:17:39;;;;;;;5.30;4.72;;;16.20;99.90;;;;;;2088646;28;20505;-68
2022/06/22 03:18:42;;;;;;;5.18;4.32;;;16.20;99.90;;;;;;2088277;28;20857;-70
2022/06/22 03:19:45;;;;;;;5.53;4.60;;;16.20;99.90;;;;;;2088494;28;20033;-68
2022/06/22 03:20:51;;;;;;;5.32;4.82;;;16.20;99.90;;;;;;2088402;28;20564;-69
2022/06/22 03:21:52;;;;;;;6.75;4.70;;;16.20;99.90;;;;;;2088443;28;20021;-69
2022/06/22 03:23:05;;;;;;;6.35;5.22;;;16.30;99.90;;;;;;2088422;28;20530;-69
2022/06/22 03:24:23;;;;;;;7.18;5.03;;;16.30;99.90;;;;;;2088656;28;20036;-70
2022/06/22 03:25:42;;;;;;;5.97;5.25;;;16.20;99.90;;;;;;2088458;28;20040;-70
2022/06/22 03:26:51;;;;;;;5.60;5.10;;;16.20;99.90;;;;;;2088653;28;20127;-69
2022/06/22 03:27:58;;;;;;;5.60;5.03;;;16.20;99.90;;;;;;2088341;28;20542;-69
2022/06/22 03:29:30;;;;;;;6.13;4.80;;;16.20;99.90;;;;;;2088257;28;20037;-69
2022/06/22 03:30:36;;;;;;;5.55;5.00;;;16.20;99.90;;;;;;2087930;28;20151;-70
2022/06/22 03:31:58;;;;;;;5.88;4.90;;;16.20;99.90;;;;;;2087790;28;20028;-70
2022/06/22 03:33:06;;;;;;;5.68;4.80;;;16.30;99.90;;;;;;2082281;28;20083;-71
2022/06/22 03:34:35;;;;;;;6.38;4.85;;;16.20;99.90;;;;;;2080674;28;20218;-70
2022/06/22 03:35:48;;;;;;;6.60;4.88;;;16.20;99.90;;;;;;2087837;28;20049;-70
2022/06/22 03:37:07;;;;;;;5.20;4.68;;;16.30;99.90;;;;;;2087566;28;20090;-70
2022/06/22 03:38:15;;;;;;;5.45;4.85;;;16.30;99.90;;;;;;2081904;28;20041;-70
2022/06/22 03:39:19;;;;;;;5.82;4.80;;;16.20;99.90;;;;;;2087581;28;20040;-69
2022/06/22 03:40:24;;;;;;;5.15;4.65;;;16.20;99.90;;;;;;2088228;28;20120;-70
2022/06/22 03:41:30;;;;;;;5.25;4.75;;;16.20;99.90;;;;;;2088317;28;20100;-70
2022/06/22 03:42:52;;;;;;;6.43;5.05;;;16.20;99.90;;;;;;2088239;28;20024;-70
2022/06/22 03:44:00;;;;;;;4.95;4.55;;;16.20;99.90;;;;;;2088252;28;20037;-71
2022/06/22 03:45:45;;;;;;;5.38;4.88;;;16.20;99.90;;;;;;2088292;28;20057;-69
2022/06/22 03:47:18;;;;;;;4.65;4.25;;;16.30;99.90;;;;;;2086858;28;20052;-70
2022/06/22 03:48:25;;;;;;;7.00;4.65;;;16.30;99.90;;;;;;2078375;28;20053;-70
2022/06/22 03:49:40;;;;;;;4.97;4.55;;;16.40;99.90;;;;;;2079696;28;20516;-70
2022/06/22 03:51:03;;;;;;;4.80;4.30;;;16.40;99.90;;;;;;2078820;28;20641;-69
2022/06/22 03:52:29;;;;;;;5.60;4.70;;;16.50;99.90;;;;;;2079713;28;20120;-70
2022/06/22 03:53:38;;;;;;;7.60;4.95;;;16.50;99.90;;;;;;2087957;28;20158;-70
2022/06/22 03:54:48;;;;;;;5.43;4.93;;;16.50;99.90;;;;;;2088045;28;20049;-70
2022/06/22 03:55:53;;;;;;;5.53;4.55;;;16.50;99.90;;;;;;2087601;28;20043;-70
2022/06/22 03:56:59;;;;;;;6.40;4.60;;;16.50;99.90;;;;;;2087607;28;20083;-70
2022/06/22 03:58:01;;;;;;;5.43;4.53;;;16.60;99.90;;;;;;2088303;28;20033;-70
2022/06/22 03:59:04;;;;;;;6.07;4.53;;;16.60;99.90;;;;;;2087988;28;20111;-70
2022/06/22 04:00:09;;;;;;;5.22;4.72;;;16.60;99.90;;;;;;2088102;28;20040;-70
2022/06/22 04:01:11;;;;;;;6.18;4.47;;;16.60;99.90;;;;;;2087977;28;20036;-69
2022/06/22 04:02:12;;;;;;;6.57;4.28;;;16.60;99.90;;;;;;2087630;28;20021;-70
2022/06/22 04:03:16;;;;;;;4.75;4.10;;;16.60;99.90;;;;;;2087520;28;20082;-71
2022/06/22 04:04:16;;;;;;;5.72;4.38;;;16.60;99.90;;;;;;2087585;28;20806;-69
2022/06/22 04:05:25;;;;;;;4.65;4.10;;;16.60;99.90;;;;;;2087555;28;20024;-70
2022/06/22 04:06:33;;;;;;;4.63;4.22;;;16.60;99.90;;;;;;2088282;28;20024;-70
2022/06/22 04:07:39;;;;;;;4.78;4.25;;;16.70;99.90;;;;;;2088526;28;20027;-71
2022/06/22 04:08:41;;;;;;;7.90;4.30;;;16.70;99.90;;;;;;2088127;28;20021;-70
2022/06/22 04:09:48;;;;;;;4.65;4.18;;;16.80;99.90;;;;;;2088286;28;20033;-70
2022/06/22 04:11:04;;;;;;;6.30;4.40;;;16.80;99.90;;;;;;2088365;28;20132;-69
2022/06/22 04:12:22;;;;;;;5.22;4.72;;;17.00;99.90;;;;;;2087621;28;20071;-70
2022/06/22 04:13:37;;;;;;;5.43;4.20;;;17.00;99.90;;;;;;2087973;28;20067;-70
2022/06/22 04:14:47;;;;;;;5.78;4.65;;;17.00;99.90;;;;;;2088198;28;20033;-74
2022/06/22 04:15:58;;;;;;;5.97;4.30;;;17.00;99.90;;;;;;2088324;28;20021;-72
2022/06/22 04:17:34;;;;;;;5.10;4.28;;;17.00;99.90;;;;;;2088221;28;20462;-70
2022/06/22 04:18:55;;;;;;;6.75;4.50;;;17.00;99.90;;;;;;2087714;28;20516;-71
2022/06/22 04:20:04;;;;;;;;;;;17.00;99.90;;;;;;2087972;28;20668;-70
2022/06/22 04:21:09;;;;;;;5.40;4.30;;;17.00;99.90;;;;;;2087816;28;19921;-69
2022/06/22 04:22:21;;;;;;;9.38;4.55;;;17.00;99.90;;;;;;2088239;28;20037;-70
2022/06/22 04:23:46;;;;;;;4.88;4.38;;;17.10;99.90;;;;;;2087457;28;20067;-71
2022/06/22 04:25:01;;;;;;;4.78;4.30;;;17.10;99.90;;;;;;2073874;28;20037;-69
2022/06/22 04:26:19;;;;;;;6.05;4.03;;;17.20;99.90;;;;;;2087836;28;20132;-69
2022/06/22 04:27:31;;;;;;;4.55;4.07;;;17.30;99.90;;;;;;2079469;28;20079;-72
2022/06/22 04:28:36;;;;;;;4.88;4.22;;;17.40;99.90;;;;;;2080786;28;20033;-71
2022/06/22 04:30:00;;;;;;;7.03;4.70;;;17.40;99.90;;;;;;2088336;28;20606;-69
2022/06/22 04:31:02;;;;;;;4.43;4.00;;;17.40;99.90;;;;;;2088091;28;20531;-73
2022/06/22 04:32:18;;;;;;;4.65;4.10;;;17.40;99.90;;;;;;2088234;28;20028;-72
2022/06/22 04:33:22;;;;;;;5.28;4.20;;;17.40;99.90;;;;;;2088125;28;20040;-71
2022/06/22 04:34:29;;;;;;;7.72;4.32;;;17.30;99.90;;;;;;2087374;28;20037;-70
2022/06/22 04:35:35;;;;;;;5.50;4.20;;;17.30;99.90;;;;;;2087253;28;20063;-71
2022/06/22 04:36:47;;;;;;;8.68;4.32;;;17.20;99.90;;;;;;2087869;28;20032;-70
2022/06/22 04:37:53;;;;;;;5.40;4.05;;;17.20;99.90;;;;;;2088036;28;20033;-70
2022/06/22 04:39:00;;;;;;;5.22;4.20;;;17.20;99.90;;;;;;2087644;28;20142;-71
2022/06/22 04:40:29;;;;;;;7.32;4.53;;;17.20;99.90;;;;;;2088008;28;20531;-71
2022/06/22 04:41:35;;;;;;;5.30;4.50;;;17.20;99.90;;;;;;2087285;28;20067;-70
2022/06/22 04:42:36;;;;;;;7.60;5.00;;;17.20;99.90;;;;;;2087690;28;20033;-71
2022/06/22 04:43:37;;;;;;;6.15;4.35;;;17.10;99.90;;;;;;2087473;28;20036;-71
2022/06/22 04:44:45;;;;;;;4.82;4.25;;;17.10;99.90;;;;;;2087208;28;20444;-71
2022/06/22 04:45:47;;;;;;;6.45;4.18;;;17.10;99.90;;;;;;2088162;28;20037;-70
2022/06/22 04:47:15;;;;;;;5.13;4.30;;;17.20;99.90;;;;;;2087969;28;20056;-71
2022/06/22 04:48:19;;;;;;;4.60;4.00;;;17.20;99.90;;;;;;2087654;28;20559;-70
2022/06/22 04:49:21;;;;;;;5.68;4.30;;;17.20;99.90;;;;;;2087977;28;20032;-70
2022/06/22 04:50:22;;;;;;;7.45;4.50;;;17.20;99.90;;;;;;2087162;28;20748;-71
2022/06/22 04:51:32;;;;;;;9.43;4.97;;;17.20;99.90;;;;;;2087434;28;20124;-71
2022/06/22 04:52:45;;;;;;;6.57;4.20;;;17.30;99.90;;;;;;2087977;28;20028;-71
2022/06/22 04:53:51;;;;;;;4.50;4.10;;;17.30;99.90;;;;;;2087811;28;20037;-70
2022/06/22 04:54:55;;;;;;;6.25;3.92;;;17.30;99.90;;;;;;2088429;28;20094;-68
2022/06/22 04:55:58;;;;;;;5.55;3.80;;;17.40;99.90;;;;;;2087682;28;20044;-70
2022/06/22 04:57:05;;;;;;;4.97;4.05;;;17.40;99.90;;;;;;2087542;28;20031;-71
2022/06/22 04:58:30;;;;;;;5.75;4.10;;;17.50;99.90;;;;;;2087580;28;20108;-70
2022/06/22 04:59:32;;;;;;;8.18;4.35;;;17.60;99.90;;;;;;2090943;28;20067;-71
2022/06/22 05:00:36;;;;;;;4.85;4.00;;;17.70;99.90;;;;;;2094504;28;20025;-70
2022/06/22 05:01:44;;;;;;;5.03;3.85;;;17.70;99.90;;;;;;2087512;28;20032;-71
2022/06/22 05:02:48;;;;;;;4.30;3.80;;;17.80;99.90;;;;;;2087501;28;20025;-70
2022/06/22 05:03:51;;;;;;;4.10;3.70;;;17.90;99.90;;;;;;2078367;28;20033;-71
2022/06/22 05:04:59;;;;;;;5.80;3.92;;;17.90;99.90;;;;;;2079595;28;20517;-70
2022/06/22 05:06:07;;;;;;;4.70;3.70;;;18.00;99.90;;;;;;2088077;28;20689;-71
2022/06/22 05:07:52;;;;;;;4.32;3.80;;;18.10;99.90;;;;;;2087495;28;20020;-70
2022/06/22 05:08:59;;;;;;;7.85;4.10;;;18.20;99.90;;;;;;2080025;28;20029;-71
2022/06/22 05:10:21;;;;;;;4.53;3.83;;;18.20;99.90;;;;;;2087432;28;20503;-71
2022/06/22 05:11:25;;;;;;;4.53;3.70;;;18.20;99.90;;;;;;2088128;28;20104;-71
2022/06/22 05:12:29;;;;;;;6.82;4.13;;;18.30;99.90;;;;;;2087305;28;20020;-71
2022/06/22 05:13:34;;;;;;;4.60;3.78;;;18.30;99.90;;;;;;2087708;28;20028;-71
2022/06/22 05:14:34;;;;;;;4.85;3.53;;;18.30;99.90;;;;;;2087741;28;20112;-71
2022/06/22 05:15:38;;;;;;;4.32;3.92;;;18.40;99.90;;;;;;2087198;28;20025;-71
2022/06/22 05:16:39;;;;;;;4.47;3.50;;;18.50;99.70;;;;;;2079439;28;20029;-70
2022/06/22 05:17:40;;;;;;;11.23;9.52;;;18.50;99.60;;;;;;2078930;28;20041;-70
2022/06/22 05:18:43;;;;;;;15.13;11.50;;;18.60;99.40;;;;;;2078780;28;20112;-69
2022/06/22 05:20:13;;;;;;;8.95;6.85;;;18.60;99.30;;;;;;2087308;28;20087;-71
2022/06/22 05:21:37;;;;;;;10.68;6.00;;;18.70;99.20;;;;;;2086484;28;20045;-71
2022/06/22 05:22:38;;;;;;;8.27;5.10;;;18.70;99.10;;;;;;2087907;28;20108;-70
2022/06/22 05:23:41;;;;;;;6.93;4.20;;;18.80;98.80;;;;;;2087648;28;20028;-71
2022/06/22 05:24:51;;;;;;;4.28;3.88;;;19.10;98.60;;;;;;2086829;28;20404;-71
2022/06/22 05:25:53;;;;;;;8.95;3.70;;;19.60;97.60;;;;;;2087070;28;20048;-72
2022/06/22 05:26:57;;;;;;;4.25;3.38;;;20.10;96.30;;;;;;2087529;28;20032;-71
2022/06/22 05:28:05;;;;;;;7.05;3.63;;;20.70;94.50;;;;;;2087509;28;20041;-70
2022/06/22 05:29:16;;;;;;;3.88;3.40;;;21.20;92.20;;;;;;2087427;28;20025;-72
2022/06/22 05:30:17;;;;;;;5.75;3.50;;;21.60;90.50;;;;;;2087478;28;20033;-70
2022/06/22 05:31:41;;;;;;;4.70;3.17;;;21.70;88.40;;;;;;2087719;28;20078;-71
2022/06/22 05:32:46;;;;;;;6.30;3.50;;;21.80;86.80;;;;;;2087353;28;20028;-71
2022/06/22 05:33:52;;;;;;;4.85;3.50;;;21.70;86.40;;;;;;2087610;28;20169;-70
2022/06/22 05:34:55;;;;;;;4.60;3.60;;;21.50;86.30;;;;;;2086991;28;20376;-70
2022/06/22 05:36:03;;;;;;;4.82;3.22;;;21.40;86.40;;;;;;2087002;28;20033;-69
2022/06/22 05:37:08;;;;;;;5.35;3.30;;;21.30;86.90;;;;;;2087686;28;20178;-68
2022/06/22 05:38:10;;;;;;;4.18;3.22;;;21.20;87.00;;;;;;2087477;28;20400;-72
2022/06/22 05:39:12;;;;;;;8.15;4.13;;;21.20;86.90;;;;;;2087449;28;20033;-72
2022/06/22 05:40:14;;;;;;;9.07;4.20;;;21.10;86.80;;;;;;2087421;28;20040;-70
2022/06/22 05:41:20;;;;;;;8.52;3.80;;;20.90;86.80;;;;;;2087597;28;20059;-71
2022/06/22 05:42:21;;;;;;;8.02;3.95;;;20.80;87.30;;;;;;2087650;28;20037;-71
2022/06/22 05:43:22;;;;;;;8.75;4.22;;;20.70;87.40;;;;;;2087477;28;20108;-70
2022/06/22 05:44:23;;;;;;;7.72;4.05;;;20.50;88.30;;;;;;2086717;28;20068;-71
2022/06/22 05:45:27;;;;;;;13.02;3.95;;;20.30;88.80;;;;;;2087019;28;20036;-70
2022/06/22 05:46:28;;;;;;;6.68;3.85;;;20.20;89.60;;;;;;2087854;28;20096;-71
2022/06/22 05:47:32;;;;;;;6.40;3.70;;;20.00;90.10;;;;;;2087716;28;20512;-75
2022/06/22 05:48:40;;;;;;;6.18;3.60;;;19.90;90.50;;;;;;2086847;28;20037;-70
2022/06/22 05:49:48;;;;;;;6.88;4.00;;;19.90;90.60;;;;;;2087149;28;20094;-72
2022/06/22 05:50:58;;;;;;;7.07;3.78;;;19.80;90.90;;;;;;2087690;28;20060;-71
2022/06/22 05:52:11;;;;;;;5.72;3.22;;;19.80;91.10;;;;;;2087815;28;20040;-71
2022/06/22 05:53:22;;;;;;;5.43;3.10;;;19.80;91.10;;;;;;2087846;28;20086;-72
2022/06/22 05:54:41;;;;;;;5.53;3.22;;;19.80;91.20;;;;;;2087406;28;20056;-69
2022/06/22 05:55:45;;;;;;;6.68;3.50;;;19.90;91.40;;;;;;2087566;28;20702;-70
2022/06/22 05:57:12;;;;;;;5.32;3.25;;;19.90;91.50;;;;;;2087361;28;20044;-70
2022/06/22 05:58:28;;;;;;;8.68;3.72;;;20.00;91.40;;;;;;2086380;28;20155;-71
2022/06/22 05:59:45;;;;;;;6.32;3.60;;;20.00;91.60;;;;;;2080586;28;20074;-70
2022/06/22 06:00:49;;;;;;;5.53;3.70;;;20.00;91.50;;;;;;2087055;28;20060;-72
2022/06/22 06:02:02;;;;;;;7.07;4.00;;;20.00;91.20;;;;;;2087407;28;20036;-70
2022/06/22 06:03:06;;;;;;;5.93;3.50;;;20.00;90.80;;;;;;2087522;28;20441;-71
2022/06/22 06:04:31;;;;;;;8.40;4.10;;;20.10;90.80;;;;;;2086607;28;20041;-70
2022/06/22 06:05:47;;;;;;;7.40;4.10;;;20.10;91.00;;;;;;2073606;28;20515;-70
2022/06/22 06:06:49;;;;;;;5.68;4.25;;;20.10;90.80;;;;;;2074728;28;20664;-71
2022/06/22 06:07:56;;;;;;;7.68;4.70;;;20.10;90.80;;;;;;2087231;28;20118;-70
2022/06/22 06:09:04;;;;;;;6.90;3.83;;;20.10;90.70;;;;;;2086900;28;20731;-69
2022/06/22 06:10:15;;;;;;;4.30;3.40;;;20.20;90.80;;;;;;2079198;28;20836;-71